sensor_id;sensor_type;location;lat;lon;timestamp;pressure;altitude;pressure_sealevel;temperature;humidity
43364;BME280;40636;52.424;-1.948;2024-02-16T00:02:01;99117.53;;;11.70;88.75
43364;BME280;40636;52.424;-1.948;2024-02-16T00:04:28;99124.50;;;11.68;89.22
43364;BME280;40636;52.424;-1.948;2024-02-16T00:06:55;99117.66;;;11.66;88.69
43364;BME280;40636;52.424;-1.948;2024-02-16T00:09:22;99123.78;;;11.63;89.12
43364;BME280;40636;52.424;-1.948;2024-02-16T00:11:49;99125.56;;;11.61;89.05
43364;BME280;40636;52.424;-1.948;2024-02-16T00:14:19;99120.41;;;11.60;88.60
43364;BME280;40636;52.424;-1.948;2024-02-16T00:16:47;99120.41;;;11.60;89.00
43364;BME280;40636;52.424;-1.948;2024-02-16T00:19:14;99116.09;;;11.59;89.04
43364;BME280;40636;52.424;-1.948;2024-02-16T00:21:42;99109.19;;;11.58;88.99
43364;BME280;40636;52.424;-1.948;2024-02-16T00:24:09;99123.16;;;11.54;88.58
43364;BME280;40636;52.424;-1.948;2024-02-16T00:26:37;99121.47;;;11.51;88.89
43364;BME280;40636;52.424;-1.948;2024-02-16T00:29:06;99120.63;;;11.51;88.85
43364;BME280;40636;52.424;-1.948;2024-02-16T00:31:33;99129.28;;;11.51;89.05
43364;BME280;40636;52.424;-1.948;2024-02-16T00:34:00;99119.78;;;11.50;89.05
43364;BME280;40636;52.424;-1.948;2024-02-16T00:36:27;99124.22;;;11.47;88.80
43364;BME280;40636;52.424;-1.948;2024-02-16T00:38:55;99121.59;;;11.47;88.88
43364;BME280;40636;52.424;-1.948;2024-02-16T00:41:23;99123.41;;;11.45;88.70
43364;BME280;40636;52.424;-1.948;2024-02-16T00:43:50;99124.25;;;11.45;89.04
43364;BME280;40636;52.424;-1.948;2024-02-16T00:46:19;99128.63;;;11.43;88.82
43364;BME280;40636;52.424;-1.948;2024-02-16T00:48:46;99133.03;;;11.41;88.89
43364;BME280;40636;52.424;-1.948;2024-02-16T00:51:14;99126.13;;;11.40;88.69
43364;BME280;40636;52.424;-1.948;2024-02-16T00:53:41;99128.75;;;11.38;88.96
43364;BME280;40636;52.424;-1.948;2024-02-16T00:56:08;99136.59;;;11.37;88.68
43364;BME280;40636;52.424;-1.948;2024-02-16T00:58:35;99140.13;;;11.34;88.85
43364;BME280;40636;52.424;-1.948;2024-02-16T01:01:03;99151.38;;;11.35;88.67
43364;BME280;40636;52.424;-1.948;2024-02-16T01:03:31;99143.66;;;11.32;88.83
43364;BME280;40636;52.424;-1.948;2024-02-16T01:05:58;99143.72;;;11.30;88.94
43364;BME280;40636;52.424;-1.948;2024-02-16T01:08:25;99140.28;;;11.28;89.00
43364;BME280;40636;52.424;-1.948;2024-02-16T01:10:55;99142.03;;;11.28;88.74
43364;BME280;40636;52.424;-1.948;2024-02-16T01:13:21;99146.44;;;11.26;88.99
43364;BME280;40636;52.424;-1.948;2024-02-16T01:15:48;99152.47;;;11.26;89.26
43364;BME280;40636;52.424;-1.948;2024-02-16T01:18:15;99153.34;;;11.27;89.00
43364;BME280;40636;52.424;-1.948;2024-02-16T01:20:42;99144.75;;;11.23;89.02
43364;BME280;40636;52.424;-1.948;2024-02-16T01:23:09;99147.38;;;11.22;89.18
43364;BME280;40636;52.424;-1.948;2024-02-16T01:25:36;99160.38;;;11.22;88.90
43364;BME280;40636;52.424;-1.948;2024-02-16T01:28:03;99163.00;;;11.22;89.00
43364;BME280;40636;52.424;-1.948;2024-02-16T01:30:30;99156.09;;;11.21;89.08
43364;BME280;40636;52.424;-1.948;2024-02-16T01:32:57;99150.03;;;11.20;88.95
43364;BME280;40636;52.424;-1.948;2024-02-16T01:35:24;99149.19;;;11.20;88.97
43364;BME280;40636;52.424;-1.948;2024-02-16T01:37:51;99150.06;;;11.19;89.14
43364;BME280;40636;52.424;-1.948;2024-02-16T01:40:18;99144.91;;;11.17;89.01
43364;BME280;40636;52.424;-1.948;2024-02-16T01:42:47;99149.25;;;11.17;88.92
43364;BME280;40636;52.424;-1.948;2024-02-16T01:45:14;99139.72;;;11.17;88.74
43364;BME280;40636;52.424;-1.948;2024-02-16T01:47:43;99137.19;;;11.14;88.94
43364;BME280;40636;52.424;-1.948;2024-02-16T01:50:11;99157.94;;;11.16;89.04
43364;BME280;40636;52.424;-1.948;2024-02-16T01:52:38;99165.78;;;11.14;89.29
43364;BME280;40636;52.424;-1.948;2024-02-16T01:55:05;99182.28;;;11.13;89.26
43364;BME280;40636;52.424;-1.948;2024-02-16T01:57:46;99171.09;;;11.09;88.94
43364;BME280;40636;52.424;-1.948;2024-02-16T02:00:14;99179.81;;;11.07;88.66
43364;BME280;40636;52.424;-1.948;2024-02-16T02:02:44;99184.22;;;11.03;88.94
43364;BME280;40636;52.424;-1.948;2024-02-16T02:05:11;99180.84;;;11.00;88.90
43364;BME280;40636;52.424;-1.948;2024-02-16T02:07:39;99190.41;;;10.98;88.74
43364;BME280;40636;52.424;-1.948;2024-02-16T02:10:07;99200.84;;;10.96;89.05
43364;BME280;40636;52.424;-1.948;2024-02-16T02:12:34;99189.66;;;10.93;89.15
43364;BME280;40636;52.424;-1.948;2024-02-16T02:15:01;99197.44;;;10.93;89.10
43364;BME280;40636;52.424;-1.948;2024-02-16T02:17:29;99190.53;;;10.92;89.03
43364;BME280;40636;52.424;-1.948;2024-02-16T02:19:56;99205.28;;;10.91;88.93
43364;BME280;40636;52.424;-1.948;2024-02-16T02:22:23;99200.13;;;10.90;89.24
43364;BME280;40636;52.424;-1.948;2024-02-16T02:24:50;99192.31;;;10.90;89.41
43364;BME280;40636;52.424;-1.948;2024-02-16T02:27:17;99192.34;;;10.88;89.06
43364;BME280;40636;52.424;-1.948;2024-02-16T02:29:44;99203.69;;;10.86;89.16
43364;BME280;40636;52.424;-1.948;2024-02-16T02:32:11;99205.47;;;10.84;88.98
43364;BME280;40636;52.424;-1.948;2024-02-16T02:34:39;99221.97;;;10.81;89.14
43364;BME280;40636;52.424;-1.948;2024-02-16T02:37:06;99214.25;;;10.78;89.12
43364;BME280;40636;52.424;-1.948;2024-02-16T02:39:34;99226.41;;;10.76;88.81
43364;BME280;40636;52.424;-1.948;2024-02-16T02:42:01;99233.38;;;10.74;89.15
43364;BME280;40636;52.424;-1.948;2024-02-16T02:44:29;99241.25;;;10.71;88.95
43364;BME280;40636;52.424;-1.948;2024-02-16T02:46:58;99241.31;;;10.68;89.15
43364;BME280;40636;52.424;-1.948;2024-02-16T02:49:25;99243.94;;;10.66;88.66
43364;BME280;40636;52.424;-1.948;2024-02-16T02:51:52;99249.13;;;10.66;89.21
43364;BME280;40636;52.424;-1.948;2024-02-16T02:54:19;99251.78;;;10.65;89.11
43364;BME280;40636;52.424;-1.948;2024-02-16T02:56:46;99254.41;;;10.63;89.40
43364;BME280;40636;52.424;-1.948;2024-02-16T02:59:13;99254.41;;;10.63;89.13
43364;BME280;40636;52.424;-1.948;2024-02-16T03:01:40;99253.56;;;10.61;89.24
43364;BME280;40636;52.424;-1.948;2024-02-16T03:04:07;99250.97;;;10.61;89.10
43364;BME280;40636;52.424;-1.948;2024-02-16T03:06:34;99244.97;;;10.59;88.77
43364;BME280;40636;52.424;-1.948;2024-02-16T03:09:01;99251.03;;;10.58;88.98
43364;BME280;40636;52.424;-1.948;2024-02-16T03:11:28;99251.06;;;10.57;89.26
43364;BME280;40636;52.424;-1.948;2024-02-16T03:13:55;99247.63;;;10.56;88.83
43364;BME280;40636;52.424;-1.948;2024-02-16T03:16:22;99262.34;;;10.56;88.68
43364;BME280;40636;52.424;-1.948;2024-02-16T03:18:49;99266.72;;;10.54;88.86
43364;BME280;40636;52.424;-1.948;2024-02-16T03:21:16;99265.88;;;10.53;88.88
43364;BME280;40636;52.424;-1.948;2024-02-16T03:23:44;99253.81;;;10.51;88.88
43364;BME280;40636;52.424;-1.948;2024-02-16T03:26:18;99259.88;;;10.50;88.80
43364;BME280;40636;52.424;-1.948;2024-02-16T03:28:46;99259.03;;;10.49;88.74
43364;BME280;40636;52.424;-1.948;2024-02-16T03:31:22;99265.09;;;10.48;89.17
43364;BME280;40636;52.424;-1.948;2024-02-16T03:33:50;99257.31;;;10.48;88.74
43364;BME280;40636;52.424;-1.948;2024-02-16T03:36:19;99253.91;;;10.46;88.94
43364;BME280;40636;52.424;-1.948;2024-02-16T03:38:48;99261.72;;;10.44;88.99
43364;BME280;40636;52.424;-1.948;2024-02-16T03:41:22;99262.63;;;10.42;89.00
43364;BME280;40636;52.424;-1.948;2024-02-16T03:43:50;99259.19;;;10.41;89.17
43364;BME280;40636;52.424;-1.948;2024-02-16T03:46:18;99266.13;;;10.41;88.63
43364;BME280;40636;52.424;-1.948;2024-02-16T03:48:45;99256.66;;;10.37;89.13
43364;BME280;40636;52.424;-1.948;2024-02-16T03:51:12;99267.06;;;10.35;88.65
43364;BME280;40636;52.424;-1.948;2024-02-16T03:53:39;99271.44;;;10.33;89.00
43364;BME280;40636;52.424;-1.948;2024-02-16T03:56:06;99265.38;;;10.33;89.06
43364;BME280;40636;52.424;-1.948;2024-02-16T03:58:35;99263.69;;;10.30;88.87
43364;BME280;40636;52.424;-1.948;2024-02-16T04:01:02;99267.19;;;10.29;89.28
43364;BME280;40636;52.424;-1.948;2024-02-16T04:03:30;99261.13;;;10.29;88.87
43364;BME280;40636;52.424;-1.948;2024-02-16T04:05:57;99273.31;;;10.25;89.02
43364;BME280;40636;52.424;-1.948;2024-02-16T04:08:26;99287.19;;;10.24;88.79
43364;BME280;40636;52.424;-1.948;2024-02-16T04:10:53;99290.66;;;10.23;89.14
43364;BME280;40636;52.424;-1.948;2024-02-16T04:13:20;99293.28;;;10.22;89.17
43364;BME280;40636;52.424;-1.948;2024-02-16T04:15:47;99288.13;;;10.20;88.73
43364;BME280;40636;52.424;-1.948;2024-02-16T04:18:16;99299.38;;;10.21;88.88
43364;BME280;40636;52.424;-1.948;2024-02-16T04:20:45;99293.31;;;10.19;88.77
43364;BME280;40636;52.424;-1.948;2024-02-16T04:23:12;99301.16;;;10.15;88.99
43364;BME280;40636;52.424;-1.948;2024-02-16T04:25:39;99311.59;;;10.12;89.26
43364;BME280;40636;52.424;-1.948;2024-02-16T04:28:06;99312.50;;;10.10;88.67
43364;BME280;40636;52.424;-1.948;2024-02-16T04:30:33;99314.28;;;10.08;88.94
43364;BME280;40636;52.424;-1.948;2024-02-16T04:33:00;99323.81;;;10.06;89.29
43364;BME280;40636;52.424;-1.948;2024-02-16T04:35:28;99322.13;;;10.03;88.77
43364;BME280;40636;52.424;-1.948;2024-02-16T04:37:55;99327.31;;;10.03;88.77
43364;BME280;40636;52.424;-1.948;2024-02-16T04:40:22;99327.34;;;10.02;88.87
43364;BME280;40636;52.424;-1.948;2024-02-16T04:42:48;99332.56;;;10.00;89.02
43364;BME280;40636;52.424;-1.948;2024-02-16T04:45:15;99330.84;;;9.99;88.92
43364;BME280;40636;52.424;-1.948;2024-02-16T04:47:42;99336.06;;;9.98;89.23
43364;BME280;40636;52.424;-1.948;2024-02-16T04:50:09;99344.72;;;9.98;88.85
43364;BME280;40636;52.424;-1.948;2024-02-16T04:52:37;99350.78;;;9.97;89.30
43364;BME280;40636;52.424;-1.948;2024-02-16T04:55:06;99350.84;;;9.94;88.96
43364;BME280;40636;52.424;-1.948;2024-02-16T04:57:33;99355.19;;;9.92;89.29
43364;BME280;40636;52.424;-1.948;2024-02-16T05:00:01;99362.13;;;9.92;89.42
43364;BME280;40636;52.424;-1.948;2024-02-16T05:02:28;99362.13;;;9.92;89.12
43364;BME280;40636;52.424;-1.948;2024-02-16T05:04:55;99354.38;;;9.89;88.65
43364;BME280;40636;52.424;-1.948;2024-02-16T05:07:23;99366.53;;;9.87;88.79
43364;BME280;40636;52.424;-1.948;2024-02-16T05:09:50;99365.69;;;9.85;88.64
43364;BME280;40636;52.424;-1.948;2024-02-16T05:12:22;99372.63;;;9.84;89.37
43364;BME280;40636;52.424;-1.948;2024-02-16T05:14:50;99378.66;;;9.85;89.05
43364;BME280;40636;52.424;-1.948;2024-02-16T05:17:18;99380.38;;;9.86;89.29
43364;BME280;40636;52.424;-1.948;2024-02-16T05:19:45;99378.66;;;9.86;89.13
43364;BME280;40636;52.424;-1.948;2024-02-16T05:22:12;99392.47;;;9.87;89.50
43364;BME280;40636;52.424;-1.948;2024-02-16T05:24:39;99397.66;;;9.87;88.79
43364;BME280;40636;52.424;-1.948;2024-02-16T05:27:06;99391.63;;;9.86;88.84
43364;BME280;40636;52.424;-1.948;2024-02-16T05:29:33;99396.81;;;9.85;88.67
43364;BME280;40636;52.424;-1.948;2024-02-16T05:32:00;99401.16;;;9.84;88.82
43364;BME280;40636;52.424;-1.948;2024-02-16T05:34:27;99405.47;;;9.85;88.98
43364;BME280;40636;52.424;-1.948;2024-02-16T05:36:59;99408.06;;;9.85;88.82
43364;BME280;40636;52.424;-1.948;2024-02-16T05:39:28;99405.47;;;9.85;89.15
43364;BME280;40636;52.424;-1.948;2024-02-16T05:41:58;99410.66;;;9.85;88.97
43364;BME280;40636;52.424;-1.948;2024-02-16T05:44:25;99413.25;;;9.85;89.04
43364;BME280;40636;52.424;-1.948;2024-02-16T05:46:53;99424.50;;;9.84;88.66
43364;BME280;40636;52.424;-1.948;2024-02-16T05:49:20;99424.50;;;9.84;88.62
43364;BME280;40636;52.424;-1.948;2024-02-16T05:51:47;99434.03;;;9.83;88.73
43364;BME280;40636;52.424;-1.948;2024-02-16T05:54:33;99446.97;;;9.85;88.95
43364;BME280;40636;52.424;-1.948;2024-02-16T05:57:04;99449.56;;;9.85;88.99
43364;BME280;40636;52.424;-1.948;2024-02-16T05:59:31;99443.53;;;9.85;88.74
43364;BME280;40636;52.424;-1.948;2024-02-16T06:01:58;99449.59;;;9.83;88.49
43364;BME280;40636;52.424;-1.948;2024-02-16T06:04:25;99460.78;;;9.86;88.53
43364;BME280;40636;52.424;-1.948;2024-02-16T06:06:53;99454.75;;;9.85;88.45
43364;BME280;40636;52.424;-1.948;2024-02-16T06:09:21;99463.41;;;9.84;89.00
43364;BME280;40636;52.424;-1.948;2024-02-16T06:11:48;99469.47;;;9.85;88.20
43364;BME280;40636;52.424;-1.948;2024-02-16T06:14:15;99464.28;;;9.85;88.83
43364;BME280;40636;52.424;-1.948;2024-02-16T06:16:46;99472.97;;;9.79;88.54
43364;BME280;40636;52.424;-1.948;2024-02-16T06:19:12;99471.34;;;9.72;88.27
43364;BME280;40636;52.424;-1.948;2024-02-16T06:21:40;99475.72;;;9.67;88.32
43364;BME280;40636;52.424;-1.948;2024-02-16T06:24:07;99480.09;;;9.65;88.42
43364;BME280;40636;52.424;-1.948;2024-02-16T06:26:34;99487.09;;;9.57;88.00
43364;BME280;40636;52.424;-1.948;2024-02-16T06:29:01;99496.66;;;9.53;87.79
43364;BME280;40636;52.424;-1.948;2024-02-16T06:31:28;99492.41;;;9.47;87.43
43364;BME280;40636;52.424;-1.948;2024-02-16T06:33:55;99507.16;;;9.42;87.70
43364;BME280;40636;52.424;-1.948;2024-02-16T06:36:22;99502.91;;;9.38;87.59
43364;BME280;40636;52.424;-1.948;2024-02-16T06:38:50;99509.00;;;9.34;88.31
43364;BME280;40636;52.424;-1.948;2024-02-16T06:41:18;99509.94;;;9.27;88.39
43364;BME280;40636;52.424;-1.948;2024-02-16T06:43:45;99516.84;;;9.24;87.95
43364;BME280;40636;52.424;-1.948;2024-02-16T06:46:12;99522.09;;;9.19;88.36
43364;BME280;40636;52.424;-1.948;2024-02-16T06:48:38;99529.91;;;9.16;87.65
43364;BME280;40636;52.424;-1.948;2024-02-16T06:51:05;99538.56;;;9.13;88.50
43364;BME280;40636;52.424;-1.948;2024-02-16T06:53:36;99536.88;;;9.11;88.73
43364;BME280;40636;52.424;-1.948;2024-02-16T06:56:04;99543.81;;;9.06;87.82
43364;BME280;40636;52.424;-1.948;2024-02-16T06:58:30;99550.78;;;9.01;88.29
43364;BME280;40636;52.424;-1.948;2024-02-16T07:00:57;99550.81;;;8.98;88.45
43364;BME280;40636;52.424;-1.948;2024-02-16T07:03:29;99559.47;;;8.95;88.42
43364;BME280;40636;52.424;-1.948;2024-02-16T07:05:57;99569.00;;;8.92;88.55
43364;BME280;40636;52.424;-1.948;2024-02-16T07:08:24;99569.91;;;8.89;88.46
43364;BME280;40636;52.424;-1.948;2024-02-16T07:10:52;99579.41;;;8.88;87.84
43364;BME280;40636;52.424;-1.948;2024-02-16T07:13:19;99582.00;;;8.88;88.36
43364;BME280;40636;52.424;-1.948;2024-02-16T07:15:46;99594.06;;;8.90;88.13
43364;BME280;40636;52.424;-1.948;2024-02-16T07:18:13;99596.63;;;8.93;88.82
43364;BME280;40636;52.424;-1.948;2024-02-16T07:20:40;99603.53;;;8.94;88.21
43364;BME280;40636;52.424;-1.948;2024-02-16T07:23:07;99605.28;;;8.92;89.01
43364;BME280;40636;52.424;-1.948;2024-02-16T07:25:36;99596.66;;;8.90;88.85
43364;BME280;40636;52.424;-1.948;2024-02-16T07:28:03;99606.16;;;8.87;88.75
43364;BME280;40636;52.424;-1.948;2024-02-16T07:30:30;99613.94;;;8.86;88.74
43364;BME280;40636;52.424;-1.948;2024-02-16T07:33:08;99613.94;;;8.86;88.96
43364;BME280;40636;52.424;-1.948;2024-02-16T07:35:36;99624.31;;;8.84;88.35
43364;BME280;40636;52.424;-1.948;2024-02-16T07:38:03;99627.78;;;8.83;88.39
43364;BME280;40636;52.424;-1.948;2024-02-16T07:40:30;99624.34;;;8.81;88.16
43364;BME280;40636;52.424;-1.948;2024-02-16T07:42:57;99634.72;;;8.81;88.77
43364;BME280;40636;52.424;-1.948;2024-02-16T07:45:25;99641.63;;;8.79;88.11
43364;BME280;40636;52.424;-1.948;2024-02-16T07:47:52;99645.09;;;8.78;88.35
43364;BME280;40636;52.424;-1.948;2024-02-16T07:50:20;99647.69;;;8.77;88.06
43364;BME280;40636;52.424;-1.948;2024-02-16T07:52:48;99649.44;;;8.75;88.65
43364;BME280;40636;52.424;-1.948;2024-02-16T07:55:15;99658.09;;;8.72;88.00
43364;BME280;40636;52.424;-1.948;2024-02-16T07:57:44;99660.69;;;8.69;88.31
43364;BME280;40636;52.424;-1.948;2024-02-16T08:00:12;99667.59;;;8.66;88.14
43364;BME280;40636;52.424;-1.948;2024-02-16T08:02:39;99670.22;;;8.61;87.40
43364;BME280;40636;52.424;-1.948;2024-02-16T08:05:10;99672.81;;;8.58;88.14
43364;BME280;40636;52.424;-1.948;2024-02-16T08:07:39;99682.31;;;8.57;88.42
43364;BME280;40636;52.424;-1.948;2024-02-16T08:10:09;99684.03;;;8.57;88.01
43364;BME280;40636;52.424;-1.948;2024-02-16T08:12:36;99679.75;;;8.54;88.01
43364;BME280;40636;52.424;-1.948;2024-02-16T08:15:05;99684.91;;;8.57;87.80
43364;BME280;40636;52.424;-1.948;2024-02-16T08:17:34;99686.63;;;8.57;88.60
43364;BME280;40636;52.424;-1.948;2024-02-16T08:20:02;99688.38;;;8.56;87.90
43364;BME280;40636;52.424;-1.948;2024-02-16T08:22:30;99690.97;;;8.55;88.46
43364;BME280;40636;52.424;-1.948;2024-02-16T08:24:56;99697.84;;;8.57;87.80
43364;BME280;40636;52.424;-1.948;2024-02-16T08:27:23;99709.94;;;8.59;88.50
43364;BME280;40636;52.424;-1.948;2024-02-16T08:29:51;99712.50;;;8.60;87.82
43364;BME280;40636;52.424;-1.948;2024-02-16T08:32:21;99717.69;;;8.62;88.71
43364;BME280;40636;52.424;-1.948;2024-02-16T08:34:48;99724.56;;;8.63;88.22
43364;BME280;40636;52.424;-1.948;2024-02-16T08:37:16;99724.56;;;8.66;87.63
43364;BME280;40636;52.424;-1.948;2024-02-16T08:39:43;99731.47;;;8.68;88.38
43364;BME280;40636;52.424;-1.948;2024-02-16T08:42:10;99739.25;;;8.70;88.00
43364;BME280;40636;52.424;-1.948;2024-02-16T08:44:38;99743.53;;;8.72;87.46
43364;BME280;40636;52.424;-1.948;2024-02-16T08:47:09;99749.56;;;8.74;88.38
43364;BME280;40636;52.424;-1.948;2024-02-16T08:49:36;99741.78;;;8.77;88.07
43364;BME280;40636;52.424;-1.948;2024-02-16T08:52:03;99763.34;;;8.81;87.99
43364;BME280;40636;52.424;-1.948;2024-02-16T08:54:30;99767.63;;;8.85;87.73
43364;BME280;40636;52.424;-1.948;2024-02-16T08:56:57;99762.44;;;8.86;87.35
43364;BME280;40636;52.424;-1.948;2024-02-16T08:59:24;99770.22;;;8.88;87.50
43364;BME280;40636;52.424;-1.948;2024-02-16T09:01:51;99777.97;;;8.90;86.92
43364;BME280;40636;52.424;-1.948;2024-02-16T09:04:18;99773.66;;;8.90;87.50
43364;BME280;40636;52.424;-1.948;2024-02-16T09:06:45;99783.13;;;8.93;86.71
43364;BME280;40636;52.424;-1.948;2024-02-16T09:09:13;99790.03;;;8.97;86.58
43364;BME280;40636;52.424;-1.948;2024-02-16T09:11:42;99786.56;;;8.96;87.16
43364;BME280;40636;52.424;-1.948;2024-02-16T09:14:08;99798.66;;;8.96;86.63
43364;BME280;40636;52.424;-1.948;2024-02-16T09:16:35;99792.59;;;8.98;87.31
43364;BME280;40636;52.424;-1.948;2024-02-16T09:19:02;99794.31;;;8.99;86.78
43364;BME280;40636;52.424;-1.948;2024-02-16T09:21:29;99803.81;;;9.02;86.63
43364;BME280;40636;52.424;-1.948;2024-02-16T09:23:56;99799.50;;;9.02;86.61
43364;BME280;40636;52.424;-1.948;2024-02-16T09:26:27;99809.84;;;9.05;86.52
43364;BME280;40636;52.424;-1.948;2024-02-16T09:28:57;99816.72;;;9.11;87.03
43364;BME280;40636;52.424;-1.948;2024-02-16T09:31:24;99823.59;;;9.13;87.04
43364;BME280;40636;52.424;-1.948;2024-02-16T09:33:51;99832.22;;;9.17;86.93
43364;BME280;40636;52.424;-1.948;2024-02-16T09:36:20;99835.66;;;9.22;86.76
43364;BME280;40636;52.424;-1.948;2024-02-16T09:38:47;99838.25;;;9.28;86.94
43364;BME280;40636;52.424;-1.948;2024-02-16T09:41:14;99833.88;;;9.33;86.82
43364;BME280;40636;52.424;-1.948;2024-02-16T09:43:45;99844.22;;;9.38;87.06
43364;BME280;40636;52.424;-1.948;2024-02-16T09:46:12;99845.06;;;9.43;86.39
43364;BME280;40636;52.424;-1.948;2024-02-16T09:48:43;99845.88;;;9.48;86.20
43364;BME280;40636;52.424;-1.948;2024-02-16T09:51:15;99855.38;;;9.47;86.66
43364;BME280;40636;52.424;-1.948;2024-02-16T09:53:42;99853.63;;;9.51;86.16
43364;BME280;40636;52.424;-1.948;2024-02-16T09:56:09;99855.31;;;9.57;86.46
43364;BME280;40636;52.424;-1.948;2024-02-16T09:58:37;99860.47;;;9.63;86.10
43364;BME280;40636;52.424;-1.948;2024-02-16T10:01:03;99863.03;;;9.66;86.18
43364;BME280;40636;52.424;-1.948;2024-02-16T10:03:31;99860.38;;;9.73;86.34
43364;BME280;40636;52.424;-1.948;2024-02-16T10:06:09;99870.72;;;9.84;86.69
43364;BME280;40636;52.424;-1.948;2024-02-16T10:08:50;99879.28;;;9.95;86.31
43364;BME280;40636;52.424;-1.948;2024-02-16T10:11:18;99882.69;;;10.02;85.85
43364;BME280;40636;52.424;-1.948;2024-02-16T10:13:58;99888.72;;;10.04;85.48
43364;BME280;40636;52.424;-1.948;2024-02-16T10:16:25;99891.28;;;10.08;86.00
43364;BME280;40636;52.424;-1.948;2024-02-16T10:18:55;99899.03;;;10.10;85.66
43364;BME280;40636;52.424;-1.948;2024-02-16T10:21:25;99897.31;;;10.10;85.33
43364;BME280;40636;52.424;-1.948;2024-02-16T10:24:00;99905.91;;;10.15;85.29
43364;BME280;40636;52.424;-1.948;2024-02-16T10:26:29;99904.16;;;10.21;84.97
43364;BME280;40636;52.424;-1.948;2024-02-16T10:28:57;99908.47;;;10.25;85.38
43364;BME280;40636;52.424;-1.948;2024-02-16T10:31:25;99911.03;;;10.26;84.95
43364;BME280;40636;52.424;-1.948;2024-02-16T10:34:06;99914.44;;;10.33;85.00
43364;BME280;40636;52.424;-1.948;2024-02-16T10:36:35;99905.78;;;10.34;84.99
43364;BME280;40636;52.424;-1.948;2024-02-16T10:39:04;99904.88;;;10.41;84.72
43364;BME280;40636;52.424;-1.948;2024-02-16T10:41:37;99908.22;;;10.52;84.80
43364;BME280;40636;52.424;-1.948;2024-02-16T10:44:05;99922.00;;;10.60;84.91
43364;BME280;40636;52.424;-1.948;2024-02-16T10:46:34;99919.34;;;10.66;84.77
43364;BME280;40636;52.424;-1.948;2024-02-16T10:49:02;99923.63;;;10.70;84.13
43364;BME280;40636;52.424;-1.948;2024-02-16T10:51:44;99917.50;;;10.76;84.55
43364;BME280;40636;52.424;-1.948;2024-02-16T10:54:16;99929.56;;;10.82;84.34
43364;BME280;40636;52.424;-1.948;2024-02-16T10:56:45;99931.25;;;10.87;84.12
43364;BME280;40636;52.424;-1.948;2024-02-16T10:59:12;99939.78;;;10.97;84.01
43364;BME280;40636;52.424;-1.948;2024-02-16T11:01:42;99939.72;;;11.04;84.05
43364;BME280;40636;52.424;-1.948;2024-02-16T11:04:18;99944.88;;;11.09;83.95
43364;BME280;40636;52.424;-1.948;2024-02-16T11:06:46;99944.78;;;11.17;83.66
43364;BME280;40636;52.424;-1.948;2024-02-16T11:09:43;99944.72;;;11.21;83.57
43364;BME280;40636;52.424;-1.948;2024-02-16T11:12:14;99952.53;;;11.21;83.09
43364;BME280;40636;52.424;-1.948;2024-02-16T11:14:46;99955.13;;;11.21;82.93
43364;BME280;40636;52.424;-1.948;2024-02-16T11:17:15;99955.97;;;11.23;82.98
43364;BME280;40636;52.424;-1.948;2024-02-16T11:19:44;99961.13;;;11.28;83.60
43364;BME280;40636;52.424;-1.948;2024-02-16T11:22:15;99961.97;;;11.28;82.67
43364;BME280;40636;52.424;-1.948;2024-02-16T11:24:46;99948.91;;;11.33;83.10
43364;BME280;40636;52.424;-1.948;2024-02-16T11:27:14;99964.53;;;11.33;83.16
43364;BME280;40636;52.424;-1.948;2024-02-16T11:29:46;99967.97;;;11.35;83.08
43364;BME280;40636;52.424;-1.948;2024-02-16T11:32:13;99974.88;;;11.36;83.05
43364;BME280;40636;52.424;-1.948;2024-02-16T11:34:40;99968.75;;;11.41;83.18
43364;BME280;40636;52.424;-1.948;2024-02-16T11:37:07;99982.63;;;11.40;83.02
43364;BME280;40636;52.424;-1.948;2024-02-16T11:39:34;99974.88;;;11.37;82.91
43364;BME280;40636;52.424;-1.948;2024-02-16T11:42:07;99984.47;;;11.32;82.95
43364;BME280;40636;52.424;-1.948;2024-02-16T11:44:35;99983.56;;;11.36;82.76
43364;BME280;40636;52.424;-1.948;2024-02-16T11:47:03;99990.44;;;11.40;82.71
43364;BME280;40636;52.424;-1.948;2024-02-16T11:49:30;99985.97;;;11.50;83.30
43364;BME280;40636;52.424;-1.948;2024-02-16T11:52:00;99981.53;;;11.60;83.17
43364;BME280;40636;52.424;-1.948;2024-02-16T11:54:28;99990.97;;;11.68;82.71
43364;BME280;40636;52.424;-1.948;2024-02-16T11:56:56;99995.31;;;11.68;82.43
43364;BME280;40636;52.424;-1.948;2024-02-16T11:59:24;100000.56;;;11.65;82.20
43364;BME280;40636;52.424;-1.948;2024-02-16T12:01:56;100004.09;;;11.61;81.78
43364;BME280;40636;52.424;-1.948;2024-02-16T12:04:25;100001.53;;;11.56;81.87
43364;BME280;40636;52.424;-1.948;2024-02-16T12:07:02;100005.00;;;11.57;82.19
43364;BME280;40636;52.424;-1.948;2024-02-16T12:09:31;100006.72;;;11.55;81.94
43364;BME280;40636;52.424;-1.948;2024-02-16T12:12:02;100007.59;;;11.54;82.29
43364;BME280;40636;52.424;-1.948;2024-02-16T12:14:30;100012.84;;;11.51;82.44
43364;BME280;40636;52.424;-1.948;2024-02-16T12:16:58;100018.94;;;11.50;81.83
43364;BME280;40636;52.424;-1.948;2024-02-16T12:19:25;100021.56;;;11.47;82.30
43364;BME280;40636;52.424;-1.948;2024-02-16T12:21:53;100016.38;;;11.47;82.56
43364;BME280;40636;52.424;-1.948;2024-02-16T12:24:22;100018.06;;;11.49;82.53
43364;BME280;40636;52.424;-1.948;2024-02-16T12:26:49;100006.81;;;11.47;83.08
43364;BME280;40636;52.424;-1.948;2024-02-16T12:29:16;100025.94;;;11.45;82.99
43364;BME280;40636;52.424;-1.948;2024-02-16T12:31:45;100027.59;;;11.50;83.12
43364;BME280;40636;52.424;-1.948;2024-02-16T12:34:12;100017.16;;;11.56;83.13
43364;BME280;40636;52.424;-1.948;2024-02-16T12:36:41;100014.34;;;11.73;83.24
43364;BME280;40636;52.424;-1.948;2024-02-16T12:39:14;100017.63;;;11.87;82.91
43364;BME280;40636;52.424;-1.948;2024-02-16T12:41:42;100026.19;;;11.95;83.04
43364;BME280;40636;52.424;-1.948;2024-02-16T12:44:10;100027.03;;;11.97;82.52
43364;BME280;40636;52.424;-1.948;2024-02-16T12:46:37;100025.25;;;12.01;82.06
43364;BME280;40636;52.424;-1.948;2024-02-16T12:49:06;100030.44;;;12.02;80.68
43364;BME280;40636;52.424;-1.948;2024-02-16T12:51:34;100024.31;;;12.07;80.64
43364;BME280;40636;52.424;-1.948;2024-02-16T12:54:01;100034.72;;;12.07;79.96
43364;BME280;40636;52.424;-1.948;2024-02-16T12:56:31;100033.00;;;12.06;79.44
43364;BME280;40636;52.424;-1.948;2024-02-16T12:58:58;100033.84;;;12.08;79.79